Cooperville, Idaho
Current Conditions -  °F | °C
As of 6:35 PM on Tuesday 21 Oct 2014 (Local Time) from KGIC Reporting Station
Broken Clouds Broken Clouds  
Wind Chill: 42°   Ceiling: 8000
Heat Index: 46°   Visibility: 10mi
Dew Point: 38°   Wind: 7mph
Humidity: 74%   Direction: 120°ESE
Pressure: 30.06"   Gusts: NA
Location:  45.7487°N, 116.14°W
Report Text: KGIC 220135Z AUTO 12006KT 10SM BKN080 08/03 A3006 RMK AO1 T00750032
Loading
Personal Weather Stations






























Interactive Weather Map
Tropical Storm Tracking
New forecast layout! Learn more

10-Day Weather Forecast

Advertisements
Track Severe Weather on mobile